sensor_id;sensor_type;location;lat;lon;timestamp;P1;durP1;ratioP1;P2;durP2;ratioP2
23232;SDS011;11785;49.500;8.288;2022-11-25T00:02:18;19.70;;;8.15;;
23232;SDS011;11785;49.500;8.288;2022-11-25T00:04:44;22.60;;;8.63;;
23232;SDS011;11785;49.500;8.288;2022-11-25T00:07:09;13.35;;;7.25;;
23232;SDS011;11785;49.500;8.288;2022-11-25T00:09:35;14.38;;;8.15;;
23232;SDS011;11785;49.500;8.288;2022-11-25T00:12:01;15.82;;;7.43;;
23232;SDS011;11785;49.500;8.288;2022-11-25T00:14:26;13.77;;;7.07;;
23232;SDS011;11785;49.500;8.288;2022-11-25T00:16:52;14.55;;;7.05;;
23232;SDS011;11785;49.500;8.288;2022-11-25T00:19:17;18.30;;;7.65;;
23232;SDS011;11785;49.500;8.288;2022-11-25T00:21:43;13.75;;;7.00;;
23232;SDS011;11785;49.500;8.288;2022-11-25T00:24:08;16.23;;;8.27;;
23232;SDS011;11785;49.500;8.288;2022-11-25T00:26:40;13.15;;;8.15;;
23232;SDS011;11785;49.500;8.288;2022-11-25T00:29:06;16.13;;;8.65;;
23232;SDS011;11785;49.500;8.288;2022-11-25T00:31:35;20.52;;;9.10;;
23232;SDS011;11785;49.500;8.288;2022-11-25T00:34:02;22.38;;;10.98;;
23232;SDS011;11785;49.500;8.288;2022-11-25T00:36:31;21.08;;;10.55;;
23232;SDS011;11785;49.500;8.288;2022-11-25T00:39:10;26.75;;;11.38;;
23232;SDS011;11785;49.500;8.288;2022-11-25T00:41:40;20.33;;;10.25;;
23232;SDS011;11785;49.500;8.288;2022-11-25T00:44:24;19.38;;;10.05;;
23232;SDS011;11785;49.500;8.288;2022-11-25T00:47:09;22.38;;;10.63;;
23232;SDS011;11785;49.500;8.288;2022-11-25T00:49:40;22.83;;;10.70;;
23232;SDS011;11785;49.500;8.288;2022-11-25T00:52:07;22.80;;;10.43;;
23232;SDS011;11785;49.500;8.288;2022-11-25T00:54:34;25.27;;;11.38;;
23232;SDS011;11785;49.500;8.288;2022-11-25T00:57:00;22.88;;;11.13;;
23232;SDS011;11785;49.500;8.288;2022-11-25T00:59:25;20.40;;;10.50;;
23232;SDS011;11785;49.500;8.288;2022-11-25T01:01:52;21.67;;;10.57;;
23232;SDS011;11785;49.500;8.288;2022-11-25T01:04:18;25.05;;;9.90;;
23232;SDS011;11785;49.500;8.288;2022-11-25T01:06:43;21.65;;;10.32;;
23232;SDS011;11785;49.500;8.288;2022-11-25T01:09:10;19.17;;;10.25;;
23232;SDS011;11785;49.500;8.288;2022-11-25T01:11:36;21.17;;;9.82;;
23232;SDS011;11785;49.500;8.288;2022-11-25T01:14:02;20.90;;;10.13;;
23232;SDS011;11785;49.500;8.288;2022-11-25T01:16:28;24.73;;;10.65;;
23232;SDS011;11785;49.500;8.288;2022-11-25T01:18:55;20.73;;;10.38;;
23232;SDS011;11785;49.500;8.288;2022-11-25T01:21:23;24.80;;;11.00;;
23232;SDS011;11785;49.500;8.288;2022-11-25T01:23:50;24.80;;;11.23;;
23232;SDS011;11785;49.500;8.288;2022-11-25T01:26:16;22.73;;;11.65;;
23232;SDS011;11785;49.500;8.288;2022-11-25T01:28:44;28.48;;;11.27;;
23232;SDS011;11785;49.500;8.288;2022-11-25T01:31:11;31.45;;;12.23;;
23232;SDS011;11785;49.500;8.288;2022-11-25T01:33:39;24.33;;;11.13;;
23232;SDS011;11785;49.500;8.288;2022-11-25T01:36:09;27.23;;;13.27;;
23232;SDS011;11785;49.500;8.288;2022-11-25T01:38:37;26.85;;;12.13;;
23232;SDS011;11785;49.500;8.288;2022-11-25T01:41:03;35.50;;;12.40;;
23232;SDS011;11785;49.500;8.288;2022-11-25T01:43:30;30.73;;;12.68;;
23232;SDS011;11785;49.500;8.288;2022-11-25T01:45:57;30.17;;;13.13;;
23232;SDS011;11785;49.500;8.288;2022-11-25T01:48:39;26.33;;;12.73;;
23232;SDS011;11785;49.500;8.288;2022-11-25T01:51:20;24.55;;;13.43;;
23232;SDS011;11785;49.500;8.288;2022-11-25T01:53:52;23.50;;;12.13;;
23232;SDS011;11785;49.500;8.288;2022-11-25T01:56:20;26.77;;;12.90;;
23232;SDS011;11785;49.500;8.288;2022-11-25T01:58:46;28.73;;;12.48;;
23232;SDS011;11785;49.500;8.288;2022-11-25T02:01:13;26.42;;;12.05;;
23232;SDS011;11785;49.500;8.288;2022-11-25T02:03:41;25.00;;;11.45;;
23232;SDS011;11785;49.500;8.288;2022-11-25T02:06:12;21.73;;;10.27;;
23232;SDS011;11785;49.500;8.288;2022-11-25T02:08:55;28.42;;;12.32;;
23232;SDS011;11785;49.500;8.288;2022-11-25T02:11:29;24.98;;;11.25;;
23232;SDS011;11785;49.500;8.288;2022-11-25T02:13:57;19.85;;;10.48;;
23232;SDS011;11785;49.500;8.288;2022-11-25T02:16:24;19.95;;;9.93;;
23232;SDS011;11785;49.500;8.288;2022-11-25T02:18:50;22.48;;;10.00;;
23232;SDS011;11785;49.500;8.288;2022-11-25T02:21:17;30.73;;;10.82;;
23232;SDS011;11785;49.500;8.288;2022-11-25T02:23:50;23.10;;;10.20;;
23232;SDS011;11785;49.500;8.288;2022-11-25T02:26:24;22.42;;;10.25;;
23232;SDS011;11785;49.500;8.288;2022-11-25T02:28:49;23.35;;;9.93;;
23232;SDS011;11785;49.500;8.288;2022-11-25T02:31:19;20.23;;;9.52;;
23232;SDS011;11785;49.500;8.288;2022-11-25T02:33:46;17.85;;;9.52;;
23232;SDS011;11785;49.500;8.288;2022-11-25T02:36:12;21.10;;;9.60;;
23232;SDS011;11785;49.500;8.288;2022-11-25T02:38:42;18.73;;;8.65;;
23232;SDS011;11785;49.500;8.288;2022-11-25T02:41:12;25.30;;;9.43;;
23232;SDS011;11785;49.500;8.288;2022-11-25T02:43:39;19.83;;;8.90;;
23232;SDS011;11785;49.500;8.288;2022-11-25T02:48:33;16.83;;;8.45;;
23232;SDS011;11785;49.500;8.288;2022-11-25T02:51:00;16.38;;;8.27;;
23232;SDS011;11785;49.500;8.288;2022-11-25T02:53:26;15.20;;;8.73;;
23232;SDS011;11785;49.500;8.288;2022-11-25T02:55:52;19.15;;;8.55;;
23232;SDS011;11785;49.500;8.288;2022-11-25T02:58:17;18.10;;;8.10;;
23232;SDS011;11785;49.500;8.288;2022-11-25T03:00:43;18.73;;;8.00;;
23232;SDS011;11785;49.500;8.288;2022-11-25T03:03:10;25.67;;;9.00;;
23232;SDS011;11785;49.500;8.288;2022-11-25T03:05:36;19.00;;;8.60;;
23232;SDS011;11785;49.500;8.288;2022-11-25T03:08:02;21.17;;;8.13;;
23232;SDS011;11785;49.500;8.288;2022-11-25T03:10:28;15.88;;;7.68;;
23232;SDS011;11785;49.500;8.288;2022-11-25T03:12:54;21.52;;;8.88;;
23232;SDS011;11785;49.500;8.288;2022-11-25T03:15:19;14.23;;;7.30;;
23232;SDS011;11785;49.500;8.288;2022-11-25T03:17:45;16.58;;;7.72;;
23232;SDS011;11785;49.500;8.288;2022-11-25T03:20:11;20.00;;;8.20;;
23232;SDS011;11785;49.500;8.288;2022-11-25T03:22:39;23.02;;;7.60;;
23232;SDS011;11785;49.500;8.288;2022-11-25T03:25:05;20.25;;;7.78;;
23232;SDS011;11785;49.500;8.288;2022-11-25T03:27:32;13.60;;;7.50;;
23232;SDS011;11785;49.500;8.288;2022-11-25T03:29:58;18.83;;;8.00;;
23232;SDS011;11785;49.500;8.288;2022-11-25T03:32:24;20.13;;;6.95;;
23232;SDS011;11785;49.500;8.288;2022-11-25T03:34:50;27.20;;;8.18;;
23232;SDS011;11785;49.500;8.288;2022-11-25T03:37:16;17.08;;;8.00;;
23232;SDS011;11785;49.500;8.288;2022-11-25T03:39:41;19.75;;;8.88;;
23232;SDS011;11785;49.500;8.288;2022-11-25T03:42:07;18.40;;;8.52;;
23232;SDS011;11785;49.500;8.288;2022-11-25T03:44:32;18.77;;;9.15;;
23232;SDS011;11785;49.500;8.288;2022-11-25T03:46:58;16.25;;;8.57;;
23232;SDS011;11785;49.500;8.288;2022-11-25T03:49:24;19.98;;;8.15;;
23232;SDS011;11785;49.500;8.288;2022-11-25T03:51:49;18.42;;;6.82;;
23232;SDS011;11785;49.500;8.288;2022-11-25T03:54:15;16.83;;;7.10;;
23232;SDS011;11785;49.500;8.288;2022-11-25T03:56:40;15.85;;;7.05;;
23232;SDS011;11785;49.500;8.288;2022-11-25T03:59:06;21.63;;;8.52;;
23232;SDS011;11785;49.500;8.288;2022-11-25T04:01:31;18.85;;;9.13;;
23232;SDS011;11785;49.500;8.288;2022-11-25T04:03:57;24.83;;;9.35;;
23232;SDS011;11785;49.500;8.288;2022-11-25T04:06:22;19.92;;;7.85;;
23232;SDS011;11785;49.500;8.288;2022-11-25T04:08:49;18.27;;;9.63;;
23232;SDS011;11785;49.500;8.288;2022-11-25T04:11:15;15.65;;;9.13;;
23232;SDS011;11785;49.500;8.288;2022-11-25T04:13:40;25.00;;;9.20;;
23232;SDS011;11785;49.500;8.288;2022-11-25T04:16:12;15.60;;;7.95;;
23232;SDS011;11785;49.500;8.288;2022-11-25T04:18:46;15.05;;;6.85;;
23232;SDS011;11785;49.500;8.288;2022-11-25T04:21:11;14.35;;;7.07;;
23232;SDS011;11785;49.500;8.288;2022-11-25T04:23:37;13.57;;;7.43;;
23232;SDS011;11785;49.500;8.288;2022-11-25T04:26:02;16.77;;;7.47;;
23232;SDS011;11785;49.500;8.288;2022-11-25T04:28:28;20.38;;;7.35;;
23232;SDS011;11785;49.500;8.288;2022-11-25T04:30:54;12.65;;;7.18;;
23232;SDS011;11785;49.500;8.288;2022-11-25T04:33:19;12.52;;;6.72;;
23232;SDS011;11785;49.500;8.288;2022-11-25T04:35:45;17.60;;;6.93;;
23232;SDS011;11785;49.500;8.288;2022-11-25T04:38:11;13.10;;;6.30;;
23232;SDS011;11785;49.500;8.288;2022-11-25T04:40:37;10.70;;;6.28;;
23232;SDS011;11785;49.500;8.288;2022-11-25T04:43:02;14.20;;;6.57;;
23232;SDS011;11785;49.500;8.288;2022-11-25T04:45:28;11.63;;;6.18;;
23232;SDS011;11785;49.500;8.288;2022-11-25T04:47:53;14.73;;;6.22;;
23232;SDS011;11785;49.500;8.288;2022-11-25T04:50:20;13.80;;;6.43;;
23232;SDS011;11785;49.500;8.288;2022-11-25T04:52:47;12.80;;;6.30;;
23232;SDS011;11785;49.500;8.288;2022-11-25T04:55:12;15.52;;;6.38;;
23232;SDS011;11785;49.500;8.288;2022-11-25T04:57:38;14.13;;;5.82;;
23232;SDS011;11785;49.500;8.288;2022-11-25T05:00:04;15.35;;;6.05;;
23232;SDS011;11785;49.500;8.288;2022-11-25T05:02:31;13.85;;;6.05;;
23232;SDS011;11785;49.500;8.288;2022-11-25T05:04:56;17.13;;;8.20;;
23232;SDS011;11785;49.500;8.288;2022-11-25T05:07:23;17.55;;;6.43;;
23232;SDS011;11785;49.500;8.288;2022-11-25T05:09:50;11.43;;;5.43;;
23232;SDS011;11785;49.500;8.288;2022-11-25T05:12:20;12.40;;;6.22;;
23232;SDS011;11785;49.500;8.288;2022-11-25T05:14:48;12.05;;;5.30;;
23232;SDS011;11785;49.500;8.288;2022-11-25T05:17:15;14.13;;;5.90;;
23232;SDS011;11785;49.500;8.288;2022-11-25T05:19:45;15.35;;;5.97;;
23232;SDS011;11785;49.500;8.288;2022-11-25T05:22:12;14.35;;;5.90;;
23232;SDS011;11785;49.500;8.288;2022-11-25T05:24:38;14.40;;;5.43;;
23232;SDS011;11785;49.500;8.288;2022-11-25T05:27:04;15.63;;;6.10;;
23232;SDS011;11785;49.500;8.288;2022-11-25T05:29:30;18.95;;;6.15;;
23232;SDS011;11785;49.500;8.288;2022-11-25T05:31:56;13.07;;;6.07;;
23232;SDS011;11785;49.500;8.288;2022-11-25T05:34:22;11.02;;;6.03;;
23232;SDS011;11785;49.500;8.288;2022-11-25T05:36:47;12.05;;;5.40;;
23232;SDS011;11785;49.500;8.288;2022-11-25T05:39:13;12.70;;;6.50;;
23232;SDS011;11785;49.500;8.288;2022-11-25T05:41:38;13.48;;;5.72;;
23232;SDS011;11785;49.500;8.288;2022-11-25T05:44:04;15.68;;;6.97;;
23232;SDS011;11785;49.500;8.288;2022-11-25T05:46:30;15.27;;;6.20;;
23232;SDS011;11785;49.500;8.288;2022-11-25T05:48:56;12.88;;;6.13;;
23232;SDS011;11785;49.500;8.288;2022-11-25T05:51:22;13.02;;;6.07;;
23232;SDS011;11785;49.500;8.288;2022-11-25T05:53:49;17.98;;;6.85;;
23232;SDS011;11785;49.500;8.288;2022-11-25T05:56:16;15.85;;;6.55;;
23232;SDS011;11785;49.500;8.288;2022-11-25T05:58:42;19.45;;;6.38;;
23232;SDS011;11785;49.500;8.288;2022-11-25T06:01:08;12.85;;;5.90;;
23232;SDS011;11785;49.500;8.288;2022-11-25T06:03:35;13.30;;;6.75;;
23232;SDS011;11785;49.500;8.288;2022-11-25T06:06:01;15.85;;;6.63;;
23232;SDS011;11785;49.500;8.288;2022-11-25T06:08:27;14.77;;;6.38;;
23232;SDS011;11785;49.500;8.288;2022-11-25T06:10:53;17.30;;;6.18;;
23232;SDS011;11785;49.500;8.288;2022-11-25T06:13:19;16.48;;;6.78;;
23232;SDS011;11785;49.500;8.288;2022-11-25T06:15:45;15.13;;;6.03;;
23232;SDS011;11785;49.500;8.288;2022-11-25T06:18:11;14.82;;;6.32;;
23232;SDS011;11785;49.500;8.288;2022-11-25T06:20:38;15.07;;;6.65;;
23232;SDS011;11785;49.500;8.288;2022-11-25T06:23:04;17.17;;;6.05;;
23232;SDS011;11785;49.500;8.288;2022-11-25T06:25:31;12.95;;;6.10;;
23232;SDS011;11785;49.500;8.288;2022-11-25T06:27:57;15.48;;;5.88;;
23232;SDS011;11785;49.500;8.288;2022-11-25T06:30:24;9.85;;;5.72;;
23232;SDS011;11785;49.500;8.288;2022-11-25T06:32:50;11.38;;;5.90;;
23232;SDS011;11785;49.500;8.288;2022-11-25T06:35:15;14.52;;;5.78;;
23232;SDS011;11785;49.500;8.288;2022-11-25T06:37:41;9.68;;;6.10;;
23232;SDS011;11785;49.500;8.288;2022-11-25T06:40:07;12.63;;;6.18;;
23232;SDS011;11785;49.500;8.288;2022-11-25T06:42:33;13.82;;;5.57;;
23232;SDS011;11785;49.500;8.288;2022-11-25T06:44:59;17.73;;;6.38;;
23232;SDS011;11785;49.500;8.288;2022-11-25T06:47:24;14.43;;;6.32;;
23232;SDS011;11785;49.500;8.288;2022-11-25T06:49:50;17.90;;;5.93;;
23232;SDS011;11785;49.500;8.288;2022-11-25T06:52:17;15.38;;;6.80;;
23232;SDS011;11785;49.500;8.288;2022-11-25T06:54:42;15.75;;;6.18;;
23232;SDS011;11785;49.500;8.288;2022-11-25T06:57:10;11.57;;;7.18;;
23232;SDS011;11785;49.500;8.288;2022-11-25T06:59:36;14.27;;;6.50;;
23232;SDS011;11785;49.500;8.288;2022-11-25T07:02:02;10.93;;;6.50;;
23232;SDS011;11785;49.500;8.288;2022-11-25T07:04:28;20.02;;;6.40;;
23232;SDS011;11785;49.500;8.288;2022-11-25T07:06:54;18.13;;;6.72;;
23232;SDS011;11785;49.500;8.288;2022-11-25T07:09:20;11.52;;;6.32;;
23232;SDS011;11785;49.500;8.288;2022-11-25T07:11:46;15.75;;;6.47;;
23232;SDS011;11785;49.500;8.288;2022-11-25T07:14:13;15.75;;;6.78;;
23232;SDS011;11785;49.500;8.288;2022-11-25T07:16:41;11.40;;;6.03;;
23232;SDS011;11785;49.500;8.288;2022-11-25T07:19:09;13.63;;;7.05;;
23232;SDS011;11785;49.500;8.288;2022-11-25T07:21:39;15.07;;;6.85;;
23232;SDS011;11785;49.500;8.288;2022-11-25T07:24:06;14.88;;;6.93;;
23232;SDS011;11785;49.500;8.288;2022-11-25T07:26:35;9.90;;;5.95;;
23232;SDS011;11785;49.500;8.288;2022-11-25T07:29:06;16.08;;;6.32;;
23232;SDS011;11785;49.500;8.288;2022-11-25T07:31:34;19.58;;;6.50;;
23232;SDS011;11785;49.500;8.288;2022-11-25T07:34:12;16.05;;;6.60;;
23232;SDS011;11785;49.500;8.288;2022-11-25T07:36:41;16.63;;;6.40;;
23232;SDS011;11785;49.500;8.288;2022-11-25T07:39:10;14.45;;;6.28;;
23232;SDS011;11785;49.500;8.288;2022-11-25T07:41:37;13.05;;;6.30;;
23232;SDS011;11785;49.500;8.288;2022-11-25T07:44:05;13.93;;;6.45;;
23232;SDS011;11785;49.500;8.288;2022-11-25T07:46:32;16.75;;;6.38;;
23232;SDS011;11785;49.500;8.288;2022-11-25T07:49:09;14.65;;;6.10;;
23232;SDS011;11785;49.500;8.288;2022-11-25T07:51:47;15.65;;;6.18;;
23232;SDS011;11785;49.500;8.288;2022-11-25T07:54:20;13.13;;;6.70;;
23232;SDS011;11785;49.500;8.288;2022-11-25T07:56:46;13.25;;;6.75;;
23232;SDS011;11785;49.500;8.288;2022-11-25T07:59:13;16.45;;;6.75;;
23232;SDS011;11785;49.500;8.288;2022-11-25T08:01:41;12.98;;;6.95;;
23232;SDS011;11785;49.500;8.288;2022-11-25T08:04:07;12.65;;;5.60;;
23232;SDS011;11785;49.500;8.288;2022-11-25T08:06:38;13.57;;;6.00;;
23232;SDS011;11785;49.500;8.288;2022-11-25T08:09:06;14.07;;;5.85;;
23232;SDS011;11785;49.500;8.288;2022-11-25T08:11:33;15.95;;;5.88;;
23232;SDS011;11785;49.500;8.288;2022-11-25T08:13:59;16.35;;;5.65;;
23232;SDS011;11785;49.500;8.288;2022-11-25T08:16:25;17.60;;;6.65;;
23232;SDS011;11785;49.500;8.288;2022-11-25T08:18:53;16.55;;;6.20;;
23232;SDS011;11785;49.500;8.288;2022-11-25T08:21:19;13.38;;;6.55;;
23232;SDS011;11785;49.500;8.288;2022-11-25T08:23:45;12.48;;;5.93;;
23232;SDS011;11785;49.500;8.288;2022-11-25T08:28:55;14.80;;;6.18;;
23232;SDS011;11785;49.500;8.288;2022-11-25T08:31:23;13.57;;;5.55;;
23232;SDS011;11785;49.500;8.288;2022-11-25T08:33:51;17.63;;;6.38;;
23232;SDS011;11785;49.500;8.288;2022-11-25T08:36:17;19.45;;;6.50;;
23232;SDS011;11785;49.500;8.288;2022-11-25T08:38:44;13.07;;;5.35;;
23232;SDS011;11785;49.500;8.288;2022-11-25T08:41:13;12.32;;;6.05;;
23232;SDS011;11785;49.500;8.288;2022-11-25T08:43:44;13.00;;;5.72;;
23232;SDS011;11785;49.500;8.288;2022-11-25T08:46:11;16.77;;;6.40;;
23232;SDS011;11785;49.500;8.288;2022-11-25T08:48:39;14.57;;;6.82;;
23232;SDS011;11785;49.500;8.288;2022-11-25T08:51:09;14.27;;;6.85;;
23232;SDS011;11785;49.500;8.288;2022-11-25T08:53:40;13.02;;;6.25;;
23232;SDS011;11785;49.500;8.288;2022-11-25T08:56:06;14.77;;;6.55;;
23232;SDS011;11785;49.500;8.288;2022-11-25T08:58:33;12.52;;;6.40;;
23232;SDS011;11785;49.500;8.288;2022-11-25T09:00:59;13.50;;;6.47;;
23232;SDS011;11785;49.500;8.288;2022-11-25T09:03:26;15.43;;;6.47;;
23232;SDS011;11785;49.500;8.288;2022-11-25T09:05:52;13.73;;;5.88;;
23232;SDS011;11785;49.500;8.288;2022-11-25T09:08:18;13.45;;;6.47;;
23232;SDS011;11785;49.500;8.288;2022-11-25T09:10:44;15.07;;;6.38;;
23232;SDS011;11785;49.500;8.288;2022-11-25T09:13:10;10.93;;;5.93;;
23232;SDS011;11785;49.500;8.288;2022-11-25T09:15:36;9.07;;;5.63;;
23232;SDS011;11785;49.500;8.288;2022-11-25T09:18:03;11.60;;;5.70;;
23232;SDS011;11785;49.500;8.288;2022-11-25T09:20:30;17.10;;;6.45;;
23232;SDS011;11785;49.500;8.288;2022-11-25T09:22:57;15.40;;;5.70;;
23232;SDS011;11785;49.500;8.288;2022-11-25T09:25:24;18.75;;;5.88;;
23232;SDS011;11785;49.500;8.288;2022-11-25T09:27:50;11.45;;;5.90;;
23232;SDS011;11785;49.500;8.288;2022-11-25T09:30:15;12.88;;;5.97;;
23232;SDS011;11785;49.500;8.288;2022-11-25T09:32:41;9.10;;;5.80;;
23232;SDS011;11785;49.500;8.288;2022-11-25T09:35:07;20.60;;;5.93;;
23232;SDS011;11785;49.500;8.288;2022-11-25T09:37:33;13.40;;;5.32;;
23232;SDS011;11785;49.500;8.288;2022-11-25T09:40:00;10.88;;;5.45;;
23232;SDS011;11785;49.500;8.288;2022-11-25T09:42:36;10.93;;;4.97;;
23232;SDS011;11785;49.500;8.288;2022-11-25T09:54:00;11.00;;;5.63;;
23232;SDS011;11785;49.500;8.288;2022-11-25T09:56:34;11.80;;;5.78;;
23232;SDS011;11785;49.500;8.288;2022-11-25T10:01:47;11.45;;;5.80;;
23232;SDS011;11785;49.500;8.288;2022-11-25T10:04:23;9.77;;;4.40;;
23232;SDS011;11785;49.500;8.288;2022-11-25T10:06:54;14.32;;;5.95;;
23232;SDS011;11785;49.500;8.288;2022-11-25T10:09:25;10.82;;;5.40;;
23232;SDS011;11785;49.500;8.288;2022-11-25T10:11:58;12.93;;;5.43;;
23232;SDS011;11785;49.500;8.288;2022-11-25T10:17:02;11.00;;;5.07;;
23232;SDS011;11785;49.500;8.288;2022-11-25T10:22:33;12.93;;;5.80;;
23232;SDS011;11785;49.500;8.288;2022-11-25T10:25:01;12.57;;;5.63;;
23232;SDS011;11785;49.500;8.288;2022-11-25T10:27:43;13.73;;;5.57;;
23232;SDS011;11785;49.500;8.288;2022-11-25T10:30:24;9.82;;;5.32;;
23232;SDS011;11785;49.500;8.288;2022-11-25T10:33:24;12.43;;;5.15;;
23232;SDS011;11785;49.500;8.288;2022-11-25T10:40:56;10.88;;;5.30;;
23232;SDS011;11785;49.500;8.288;2022-11-25T10:43:22;8.93;;;5.07;;
23232;SDS011;11785;49.500;8.288;2022-11-25T10:45:55;14.63;;;5.10;;
23232;SDS011;11785;49.500;8.288;2022-11-25T10:51:10;8.18;;;5.40;;
23232;SDS011;11785;49.500;8.288;2022-11-25T10:56:41;12.80;;;5.65;;
23232;SDS011;11785;49.500;8.288;2022-11-25T10:59:12;13.82;;;5.97;;
23232;SDS011;11785;49.500;8.288;2022-11-25T11:01:45;11.60;;;5.70;;
23232;SDS011;11785;49.500;8.288;2022-11-25T11:04:11;12.30;;;6.50;;
23232;SDS011;11785;49.500;8.288;2022-11-25T11:06:40;12.77;;;5.32;;
23232;SDS011;11785;49.500;8.288;2022-11-25T11:11:56;12.18;;;5.30;;
23232;SDS011;11785;49.500;8.288;2022-11-25T11:14:22;12.23;;;4.95;;
23232;SDS011;11785;49.500;8.288;2022-11-25T11:16:54;11.27;;;5.07;;
23232;SDS011;11785;49.500;8.288;2022-11-25T11:21:48;14.48;;;5.18;;
23232;SDS011;11785;49.500;8.288;2022-11-25T11:29:34;11.38;;;5.18;;
23232;SDS011;11785;49.500;8.288;2022-11-25T11:32:01;9.45;;;4.95;;
23232;SDS011;11785;49.500;8.288;2022-11-25T11:34:40;12.13;;;5.65;;
23232;SDS011;11785;49.500;8.288;2022-11-25T11:37:34;13.73;;;6.88;;
23232;SDS011;11785;49.500;8.288;2022-11-25T11:42:54;11.38;;;5.40;;
23232;SDS011;11785;49.500;8.288;2022-11-25T11:45:37;11.98;;;5.75;;
23232;SDS011;11785;49.500;8.288;2022-11-25T11:51:01;13.07;;;5.90;;
23232;SDS011;11785;49.500;8.288;2022-11-25T11:56:45;14.18;;;5.80;;
23232;SDS011;11785;49.500;8.288;2022-11-25T12:02:28;17.33;;;5.18;;
23232;SDS011;11785;49.500;8.288;2022-11-25T12:07:50;11.50;;;4.75;;
23232;SDS011;11785;49.500;8.288;2022-11-25T12:12:51;10.48;;;5.15;;
23232;SDS011;11785;49.500;8.288;2022-11-25T12:15:43;11.18;;;4.72;;
23232;SDS011;11785;49.500;8.288;2022-11-25T12:21:03;8.07;;;4.40;;
23232;SDS011;11785;49.500;8.288;2022-11-25T12:26:17;9.93;;;4.65;;
23232;SDS011;11785;49.500;8.288;2022-11-25T12:28:55;10.95;;;4.07;;
23232;SDS011;11785;49.500;8.288;2022-11-25T12:31:28;11.52;;;4.88;;
23232;SDS011;11785;49.500;8.288;2022-11-25T12:39:10;11.20;;;4.80;;
23232;SDS011;11785;49.500;8.288;2022-11-25T12:41:43;10.77;;;4.78;;
23232;SDS011;11785;49.500;8.288;2022-11-25T12:44:29;8.75;;;3.88;;
23232;SDS011;11785;49.500;8.288;2022-11-25T12:47:09;11.27;;;4.40;;
23232;SDS011;11785;49.500;8.288;2022-11-25T12:49:42;13.15;;;4.70;;
23232;SDS011;11785;49.500;8.288;2022-11-25T12:52:11;6.68;;;4.05;;
23232;SDS011;11785;49.500;8.288;2022-11-25T13:00:21;6.63;;;4.00;;
23232;SDS011;11785;49.500;8.288;2022-11-25T13:11:46;7.03;;;3.78;;
23232;SDS011;11785;49.500;8.288;2022-11-25T13:17:06;13.75;;;4.03;;
23232;SDS011;11785;49.500;8.288;2022-11-25T13:19:35;9.45;;;4.25;;
23232;SDS011;11785;49.500;8.288;2022-11-25T13:22:04;12.40;;;5.22;;
23232;SDS011;11785;49.500;8.288;2022-11-25T13:24:51;10.07;;;4.20;;
23232;SDS011;11785;49.500;8.288;2022-11-25T13:29:56;9.43;;;4.25;;
23232;SDS011;11785;49.500;8.288;2022-11-25T13:32:24;11.90;;;4.38;;
23232;SDS011;11785;49.500;8.288;2022-11-25T13:35:28;12.18;;;3.80;;
23232;SDS011;11785;49.500;8.288;2022-11-25T13:37:45;19.90;;;8.75;;
23232;SDS011;11785;49.500;8.288;2022-11-25T13:42:44;9.35;;;4.47;;
23232;SDS011;11785;49.500;8.288;2022-11-25T13:45:23;12.52;;;4.47;;
23232;SDS011;11785;49.500;8.288;2022-11-25T13:47:52;11.13;;;3.92;;
23232;SDS011;11785;49.500;8.288;2022-11-25T13:50:21;10.75;;;4.47;;
23232;SDS011;11785;49.500;8.288;2022-11-25T13:57:43;8.13;;;4.50;;
23232;SDS011;11785;49.500;8.288;2022-11-25T14:03:39;10.73;;;4.60;;
23232;SDS011;11785;49.500;8.288;2022-11-25T14:05:47;18.58;;;6.95;;
23232;SDS011;11785;49.500;8.288;2022-11-25T14:08:20;13.15;;;5.90;;
23232;SDS011;11785;49.500;8.288;2022-11-25T14:22:22;7.82;;;3.20;;
23232;SDS011;11785;49.500;8.288;2022-11-25T14:25:13;6.68;;;2.03;;
23232;SDS011;11785;49.500;8.288;2022-11-25T14:27:47;7.63;;;2.22;;
23232;SDS011;11785;49.500;8.288;2022-11-25T14:30:18;8.38;;;2.10;;
23232;SDS011;11785;49.500;8.288;2022-11-25T14:35:24;6.93;;;2.53;;
23232;SDS011;11785;49.500;8.288;2022-11-25T14:37:59;9.13;;;2.03;;
23232;SDS011;11785;49.500;8.288;2022-11-25T14:40:42;8.95;;;2.47;;
23232;SDS011;11785;49.500;8.288;2022-11-25T14:43:29;11.60;;;2.15;;
23232;SDS011;11785;49.500;8.288;2022-11-25T14:46:17;9.20;;;1.90;;
23232;SDS011;11785;49.500;8.288;2022-11-25T14:48:54;8.45;;;2.13;;
23232;SDS011;11785;49.500;8.288;2022-11-25T14:51:24;4.53;;;2.10;;
23232;SDS011;11785;49.500;8.288;2022-11-25T14:53:52;7.00;;;1.98;;
23232;SDS011;11785;49.500;8.288;2022-11-25T14:56:23;7.18;;;2.00;;
23232;SDS011;11785;49.500;8.288;2022-11-25T14:58:52;11.53;;;2.07;;
23232;SDS011;11785;49.500;8.288;2022-11-25T15:01:29;11.40;;;1.80;;
23232;SDS011;11785;49.500;8.288;2022-11-25T15:04:14;8.70;;;2.25;;
23232;SDS011;11785;49.500;8.288;2022-11-25T15:06:52;7.88;;;1.73;;
23232;SDS011;11785;49.500;8.288;2022-11-25T15:09:27;7.80;;;2.00;;
23232;SDS011;11785;49.500;8.288;2022-11-25T15:12:06;6.47;;;1.60;;
23232;SDS011;11785;49.500;8.288;2022-11-25T15:14:40;9.85;;;1.60;;
23232;SDS011;11785;49.500;8.288;2022-11-25T15:17:21;6.93;;;2.17;;
23232;SDS011;11785;49.500;8.288;2022-11-25T15:19:50;9.45;;;2.30;;
23232;SDS011;11785;49.500;8.288;2022-11-25T15:22:18;5.97;;;1.85;;
23232;SDS011;11785;49.500;8.288;2022-11-25T15:24:45;8.02;;;2.20;;
23232;SDS011;11785;49.500;8.288;2022-11-25T15:27:13;8.57;;;1.63;;
23232;SDS011;11785;49.500;8.288;2022-11-25T15:29:41;6.80;;;1.98;;
23232;SDS011;11785;49.500;8.288;2022-11-25T15:32:13;7.85;;;1.70;;
23232;SDS011;11785;49.500;8.288;2022-11-25T15:34:55;8.27;;;2.38;;
23232;SDS011;11785;49.500;8.288;2022-11-25T15:37:22;9.88;;;3.28;;
23232;SDS011;11785;49.500;8.288;2022-11-25T15:39:49;17.33;;;4.43;;
23232;SDS011;11785;49.500;8.288;2022-11-25T15:42:34;10.00;;;4.13;;
23232;SDS011;11785;49.500;8.288;2022-11-25T15:45:02;8.02;;;2.53;;
23232;SDS011;11785;49.500;8.288;2022-11-25T15:47:33;9.93;;;2.40;;
23232;SDS011;11785;49.500;8.288;2022-11-25T15:52:43;18.20;;;6.25;;
23232;SDS011;11785;49.500;8.288;2022-11-25T15:58:02;14.38;;;5.95;;
23232;SDS011;11785;49.500;8.288;2022-11-25T16:00:36;15.77;;;5.47;;
23232;SDS011;11785;49.500;8.288;2022-11-25T16:03:03;12.73;;;5.40;;
23232;SDS011;11785;49.500;8.288;2022-11-25T16:05:54;12.63;;;4.35;;
23232;SDS011;11785;49.500;8.288;2022-11-25T16:08:28;11.80;;;3.85;;
23232;SDS011;11785;49.500;8.288;2022-11-25T16:10:57;14.80;;;5.35;;
23232;SDS011;11785;49.500;8.288;2022-11-25T16:13:33;14.43;;;3.95;;
23232;SDS011;11785;49.500;8.288;2022-11-25T16:18:54;8.70;;;4.32;;
23232;SDS011;11785;49.500;8.288;2022-11-25T16:21:28;16.42;;;4.30;;
23232;SDS011;11785;49.500;8.288;2022-11-25T16:26:35;7.05;;;2.60;;
23232;SDS011;11785;49.500;8.288;2022-11-25T16:29:16;8.98;;;3.95;;
23232;SDS011;11785;49.500;8.288;2022-11-25T16:31:43;7.95;;;3.28;;
23232;SDS011;11785;49.500;8.288;2022-11-25T16:34:16;15.65;;;3.22;;
23232;SDS011;11785;49.500;8.288;2022-11-25T16:36:44;11.93;;;2.10;;
23232;SDS011;11785;49.500;8.288;2022-11-25T16:39:09;11.82;;;2.90;;
23232;SDS011;11785;49.500;8.288;2022-11-25T16:41:35;17.73;;;3.13;;
23232;SDS011;11785;49.500;8.288;2022-11-25T16:44:03;9.70;;;2.67;;
23232;SDS011;11785;49.500;8.288;2022-11-25T16:46:29;8.40;;;2.25;;
23232;SDS011;11785;49.500;8.288;2022-11-25T16:48:54;10.48;;;2.97;;
23232;SDS011;11785;49.500;8.288;2022-11-25T16:51:21;13.52;;;4.75;;
23232;SDS011;11785;49.500;8.288;2022-11-25T16:53:49;13.90;;;3.95;;
23232;SDS011;11785;49.500;8.288;2022-11-25T16:56:15;15.98;;;4.43;;